Pagrindinis puslapis
METAR-TAF:

METAR-TAF

Oro uostai :

Lamerd, Iranas

platuma: 27-22-22N, ilguma: 53-11-20E, Aukštis: 408 m

Dabartinis oras

Ataskaita buvo paskelbta 17 minutes, ne 11:00 UTC
Vėjas 4 kt iš Vakarų/Pietvakarių
Temperatūra 36°C
Drėgmė 22%
Slėgis 1016 hPa
Matomumas 10 km arba daugiau
Mažai debesys ne aukštis 3000 ft

METAR: OISR 141100Z 25004KT 9999 FEW030 36/11 Q1015 A3000

Laikas: 14:47 (11:17 UTC)


TAF: trūkstamas

Orai ataskaitas ir orų prognozės (METAR, TAF).

turimą stotys yra geltonos ir raudonos taškus žemėlapyje.

Perkelti pele per norėdami pamatyti stoties vardą.

Tada spustelėkite, norėdami matyti oro stebėjimo ir prognozės.

Norėdami pakeisti žemėlapį: spustelėkite ant žalios mygtukų su juodo kryžiaus žemyn,; žalią mygtuką su brūkšneliu, jei norite nutolinti; arba žalių rodyklių gretimoms žemėlapius.


METAR-TAF: